sensor_id;sensor_type;location;lat;lon;timestamp;P1;durP1;ratioP1;P2;durP2;ratioP2
9526;SDS011;4802;51.494;6.770;2022-08-05T00:01:30;2.87;;;1.07;;
9526;SDS011;4802;51.494;6.770;2022-08-05T00:04:14;0.87;;;0.87;;
9526;SDS011;4802;51.494;6.770;2022-08-05T00:06:44;1.03;;;1.03;;
9526;SDS011;4802;51.494;6.770;2022-08-05T00:09:18;1.70;;;1.60;;
9526;SDS011;4802;51.494;6.770;2022-08-05T00:11:57;1.10;;;1.00;;
9526;SDS011;4802;51.494;6.770;2022-08-05T00:14:27;1.07;;;1.07;;
9526;SDS011;4802;51.494;6.770;2022-08-05T00:16:58;3.23;;;1.23;;
9526;SDS011;4802;51.494;6.770;2022-08-05T00:19:28;1.50;;;1.23;;
9526;SDS011;4802;51.494;6.770;2022-08-05T00:21:59;1.17;;;1.07;;
9526;SDS011;4802;51.494;6.770;2022-08-05T00:24:31;1.10;;;1.10;;
9526;SDS011;4802;51.494;6.770;2022-08-05T00:27:00;4.77;;;1.90;;
9526;SDS011;4802;51.494;6.770;2022-08-05T00:29:42;1.70;;;1.60;;
9526;SDS011;4802;51.494;6.770;2022-08-05T00:32:11;7.70;;;1.70;;
9526;SDS011;4802;51.494;6.770;2022-08-05T00:34:41;1.00;;;1.00;;
9526;SDS011;4802;51.494;6.770;2022-08-05T00:37:31;0.90;;;0.90;;
9526;SDS011;4802;51.494;6.770;2022-08-05T00:40:23;2.00;;;0.90;;
9526;SDS011;4802;51.494;6.770;2022-08-05T00:42:56;0.87;;;0.87;;
9526;SDS011;4802;51.494;6.770;2022-08-05T00:45:25;2.00;;;1.50;;
9526;SDS011;4802;51.494;6.770;2022-08-05T00:48:10;1.00;;;1.00;;
9526;SDS011;4802;51.494;6.770;2022-08-05T00:50:39;1.00;;;1.00;;
9526;SDS011;4802;51.494;6.770;2022-08-05T00:53:12;1.17;;;1.07;;
9526;SDS011;4802;51.494;6.770;2022-08-05T00:56:03;1.20;;;1.10;;
9526;SDS011;4802;51.494;6.770;2022-08-05T00:58:34;1.03;;;0.90;;
9526;SDS011;4802;51.494;6.770;2022-08-05T01:01:03;4.93;;;1.93;;
9526;SDS011;4802;51.494;6.770;2022-08-05T01:03:35;0.87;;;0.87;;
9526;SDS011;4802;51.494;6.770;2022-08-05T01:06:04;1.40;;;1.30;;
9526;SDS011;4802;51.494;6.770;2022-08-05T01:08:40;3.57;;;1.20;;
9526;SDS011;4802;51.494;6.770;2022-08-05T01:11:15;2.50;;;1.00;;
9526;SDS011;4802;51.494;6.770;2022-08-05T01:13:52;1.20;;;1.10;;
9526;SDS011;4802;51.494;6.770;2022-08-05T01:16:28;1.13;;;1.03;;
9526;SDS011;4802;51.494;6.770;2022-08-05T01:19:11;1.30;;;1.23;;
9526;SDS011;4802;51.494;6.770;2022-08-05T01:22:17;1.63;;;1.50;;
9526;SDS011;4802;51.494;6.770;2022-08-05T01:25:21;4.00;;;1.30;;
9526;SDS011;4802;51.494;6.770;2022-08-05T01:28:27;1.90;;;1.80;;
9526;SDS011;4802;51.494;6.770;2022-08-05T01:31:04;1.27;;;1.13;;
9526;SDS011;4802;51.494;6.770;2022-08-05T01:33:42;0.87;;;0.87;;
9526;SDS011;4802;51.494;6.770;2022-08-05T01:36:21;1.50;;;1.40;;
9526;SDS011;4802;51.494;6.770;2022-08-05T01:38:55;3.13;;;1.67;;
9526;SDS011;4802;51.494;6.770;2022-08-05T01:41:28;1.10;;;1.00;;
9526;SDS011;4802;51.494;6.770;2022-08-05T01:44:11;1.60;;;1.50;;
9526;SDS011;4802;51.494;6.770;2022-08-05T01:46:42;1.20;;;1.20;;
9526;SDS011;4802;51.494;6.770;2022-08-05T01:49:15;4.53;;;1.20;;
9526;SDS011;4802;51.494;6.770;2022-08-05T01:51:51;2.97;;;1.90;;
9526;SDS011;4802;51.494;6.770;2022-08-05T01:54:25;1.70;;;0.80;;
9526;SDS011;4802;51.494;6.770;2022-08-05T01:57:11;1.23;;;1.17;;
9526;SDS011;4802;51.494;6.770;2022-08-05T02:00:06;1.00;;;1.00;;
9526;SDS011;4802;51.494;6.770;2022-08-05T02:02:39;2.93;;;1.20;;
9526;SDS011;4802;51.494;6.770;2022-08-05T02:05:21;1.63;;;1.50;;
9526;SDS011;4802;51.494;6.770;2022-08-05T02:07:59;2.77;;;2.57;;
9526;SDS011;4802;51.494;6.770;2022-08-05T02:10:31;1.30;;;1.20;;
9526;SDS011;4802;51.494;6.770;2022-08-05T02:13:04;1.70;;;1.57;;
9526;SDS011;4802;51.494;6.770;2022-08-05T02:15:44;1.43;;;0.90;;
9526;SDS011;4802;51.494;6.770;2022-08-05T02:18:18;1.50;;;1.40;;
9526;SDS011;4802;51.494;6.770;2022-08-05T02:21:01;1.87;;;1.77;;
9526;SDS011;4802;51.494;6.770;2022-08-05T02:23:41;0.77;;;0.77;;
9526;SDS011;4802;51.494;6.770;2022-08-05T02:26:14;1.30;;;1.20;;
9526;SDS011;4802;51.494;6.770;2022-08-05T02:28:51;1.60;;;1.50;;
9526;SDS011;4802;51.494;6.770;2022-08-05T02:31:27;2.47;;;2.27;;
9526;SDS011;4802;51.494;6.770;2022-08-05T02:34:01;3.30;;;2.00;;
9526;SDS011;4802;51.494;6.770;2022-08-05T02:36:35;2.47;;;1.50;;
9526;SDS011;4802;51.494;6.770;2022-08-05T02:39:09;1.60;;;1.50;;
9526;SDS011;4802;51.494;6.770;2022-08-05T02:41:40;1.70;;;1.60;;
9526;SDS011;4802;51.494;6.770;2022-08-05T02:44:27;2.10;;;1.00;;
9526;SDS011;4802;51.494;6.770;2022-08-05T02:47:01;1.80;;;1.50;;
9526;SDS011;4802;51.494;6.770;2022-08-05T02:49:34;1.87;;;1.70;;
9526;SDS011;4802;51.494;6.770;2022-08-05T02:52:09;1.13;;;1.13;;
9526;SDS011;4802;51.494;6.770;2022-08-05T02:54:56;1.10;;;1.00;;
9526;SDS011;4802;51.494;6.770;2022-08-05T02:57:30;3.97;;;1.27;;
9526;SDS011;4802;51.494;6.770;2022-08-05T03:00:20;1.03;;;0.77;;
9526;SDS011;4802;51.494;6.770;2022-08-05T03:05:48;4.40;;;1.60;;
9526;SDS011;4802;51.494;6.770;2022-08-05T03:08:38;1.80;;;1.70;;
9526;SDS011;4802;51.494;6.770;2022-08-05T03:11:16;1.60;;;1.50;;
9526;SDS011;4802;51.494;6.770;2022-08-05T03:14:06;1.40;;;1.33;;
9526;SDS011;4802;51.494;6.770;2022-08-05T03:16:39;2.50;;;2.27;;
9526;SDS011;4802;51.494;6.770;2022-08-05T03:19:11;1.60;;;1.50;;
9526;SDS011;4802;51.494;6.770;2022-08-05T03:22:00;2.13;;;2.03;;
9526;SDS011;4802;51.494;6.770;2022-08-05T03:24:30;1.80;;;1.70;;
9526;SDS011;4802;51.494;6.770;2022-08-05T03:27:00;1.70;;;1.60;;
9526;SDS011;4802;51.494;6.770;2022-08-05T03:29:41;3.47;;;3.17;;
9526;SDS011;4802;51.494;6.770;2022-08-05T03:32:30;2.17;;;2.03;;
9526;SDS011;4802;51.494;6.770;2022-08-05T03:35:05;3.63;;;1.97;;
9526;SDS011;4802;51.494;6.770;2022-08-05T03:37:35;2.33;;;2.13;;
9526;SDS011;4802;51.494;6.770;2022-08-05T03:40:12;2.60;;;2.07;;
9526;SDS011;4802;51.494;6.770;2022-08-05T03:42:57;1.27;;;1.17;;
9526;SDS011;4802;51.494;6.770;2022-08-05T03:45:47;4.30;;;2.57;;
9526;SDS011;4802;51.494;6.770;2022-08-05T03:48:23;5.90;;;2.67;;
9526;SDS011;4802;51.494;6.770;2022-08-05T03:50:57;1.70;;;1.60;;
9526;SDS011;4802;51.494;6.770;2022-08-05T03:53:51;2.43;;;1.93;;
9526;SDS011;4802;51.494;6.770;2022-08-05T03:56:45;1.60;;;1.50;;
9526;SDS011;4802;51.494;6.770;2022-08-05T03:59:16;1.60;;;1.50;;
9526;SDS011;4802;51.494;6.770;2022-08-05T04:01:50;1.57;;;1.47;;
9526;SDS011;4802;51.494;6.770;2022-08-05T04:04:24;1.83;;;1.73;;
9526;SDS011;4802;51.494;6.770;2022-08-05T04:07:01;2.40;;;1.50;;
9526;SDS011;4802;51.494;6.770;2022-08-05T04:09:32;1.90;;;1.80;;
9526;SDS011;4802;51.494;6.770;2022-08-05T04:12:02;3.90;;;3.10;;
9526;SDS011;4802;51.494;6.770;2022-08-05T04:14:50;5.70;;;1.60;;
9526;SDS011;4802;51.494;6.770;2022-08-05T04:17:23;3.63;;;2.30;;
9526;SDS011;4802;51.494;6.770;2022-08-05T04:20:18;3.00;;;1.60;;
9526;SDS011;4802;51.494;6.770;2022-08-05T04:22:50;2.00;;;1.83;;
9526;SDS011;4802;51.494;6.770;2022-08-05T04:25:19;2.07;;;1.77;;
9526;SDS011;4802;51.494;6.770;2022-08-05T04:28:08;1.90;;;1.80;;
9526;SDS011;4802;51.494;6.770;2022-08-05T04:30:38;2.30;;;2.20;;
9526;SDS011;4802;51.494;6.770;2022-08-05T04:33:08;2.53;;;2.30;;
9526;SDS011;4802;51.494;6.770;2022-08-05T04:35:37;3.53;;;1.63;;
9526;SDS011;4802;51.494;6.770;2022-08-05T04:38:28;1.47;;;1.37;;
9526;SDS011;4802;51.494;6.770;2022-08-05T04:41:05;2.87;;;2.63;;
9526;SDS011;4802;51.494;6.770;2022-08-05T04:43:35;3.53;;;2.50;;
9526;SDS011;4802;51.494;6.770;2022-08-05T04:46:12;3.13;;;2.77;;
9526;SDS011;4802;51.494;6.770;2022-08-05T04:48:54;3.20;;;2.67;;
9526;SDS011;4802;51.494;6.770;2022-08-05T04:51:24;2.53;;;1.90;;
9526;SDS011;4802;51.494;6.770;2022-08-05T04:53:57;2.50;;;1.73;;
9526;SDS011;4802;51.494;6.770;2022-08-05T04:56:28;4.40;;;2.70;;
9526;SDS011;4802;51.494;6.770;2022-08-05T04:59:02;4.87;;;3.40;;
9526;SDS011;4802;51.494;6.770;2022-08-05T05:01:52;2.57;;;1.87;;
9526;SDS011;4802;51.494;6.770;2022-08-05T05:04:40;3.00;;;2.80;;
9526;SDS011;4802;51.494;6.770;2022-08-05T05:07:15;6.30;;;3.03;;
9526;SDS011;4802;51.494;6.770;2022-08-05T05:09:56;3.07;;;2.87;;
9526;SDS011;4802;51.494;6.770;2022-08-05T05:12:29;3.40;;;3.10;;
9526;SDS011;4802;51.494;6.770;2022-08-05T05:14:58;2.80;;;2.70;;
9526;SDS011;4802;51.494;6.770;2022-08-05T05:17:35;3.10;;;2.33;;
9526;SDS011;4802;51.494;6.770;2022-08-05T05:20:22;4.97;;;2.67;;
9526;SDS011;4802;51.494;6.770;2022-08-05T05:22:54;2.83;;;2.63;;
9526;SDS011;4802;51.494;6.770;2022-08-05T05:25:25;3.03;;;2.53;;
9526;SDS011;4802;51.494;6.770;2022-08-05T05:28:06;3.97;;;3.30;;
9526;SDS011;4802;51.494;6.770;2022-08-05T05:30:35;3.20;;;2.90;;
9526;SDS011;4802;51.494;6.770;2022-08-05T05:33:05;3.13;;;2.93;;
9526;SDS011;4802;51.494;6.770;2022-08-05T05:35:43;3.77;;;3.20;;
9526;SDS011;4802;51.494;6.770;2022-08-05T05:38:14;4.40;;;3.10;;
9526;SDS011;4802;51.494;6.770;2022-08-05T05:40:54;2.80;;;2.60;;
9526;SDS011;4802;51.494;6.770;2022-08-05T05:43:23;3.03;;;2.73;;
9526;SDS011;4802;51.494;6.770;2022-08-05T05:46:12;3.83;;;2.87;;
9526;SDS011;4802;51.494;6.770;2022-08-05T05:48:44;2.33;;;2.23;;
9526;SDS011;4802;51.494;6.770;2022-08-05T05:51:18;2.20;;;1.87;;
9526;SDS011;4802;51.494;6.770;2022-08-05T05:53:48;4.13;;;3.67;;
9526;SDS011;4802;51.494;6.770;2022-08-05T05:56:26;3.00;;;2.60;;
9526;SDS011;4802;51.494;6.770;2022-08-05T05:58:59;2.03;;;1.93;;
9526;SDS011;4802;51.494;6.770;2022-08-05T06:01:34;5.60;;;3.57;;
9526;SDS011;4802;51.494;6.770;2022-08-05T06:04:06;3.00;;;2.20;;
9526;SDS011;4802;51.494;6.770;2022-08-05T06:06:38;3.00;;;2.80;;
9526;SDS011;4802;51.494;6.770;2022-08-05T06:09:12;2.63;;;2.43;;
9526;SDS011;4802;51.494;6.770;2022-08-05T06:11:52;1.70;;;1.60;;
9526;SDS011;4802;51.494;6.770;2022-08-05T06:14:27;1.73;;;1.73;;
9526;SDS011;4802;51.494;6.770;2022-08-05T06:16:58;4.70;;;3.43;;
9526;SDS011;4802;51.494;6.770;2022-08-05T06:19:47;2.33;;;2.20;;
9526;SDS011;4802;51.494;6.770;2022-08-05T06:22:25;3.10;;;2.47;;
9526;SDS011;4802;51.494;6.770;2022-08-05T06:24:59;2.10;;;2.00;;
9526;SDS011;4802;51.494;6.770;2022-08-05T06:27:49;2.97;;;2.77;;
9526;SDS011;4802;51.494;6.770;2022-08-05T06:30:38;1.77;;;1.67;;
9526;SDS011;4802;51.494;6.770;2022-08-05T06:33:07;1.53;;;1.43;;
9526;SDS011;4802;51.494;6.770;2022-08-05T06:35:38;2.30;;;2.10;;
9526;SDS011;4802;51.494;6.770;2022-08-05T06:38:27;1.77;;;1.50;;
9526;SDS011;4802;51.494;6.770;2022-08-05T06:41:02;2.40;;;2.20;;
9526;SDS011;4802;51.494;6.770;2022-08-05T06:43:45;2.40;;;2.20;;
9526;SDS011;4802;51.494;6.770;2022-08-05T06:46:26;2.63;;;2.50;;
9526;SDS011;4802;51.494;6.770;2022-08-05T06:48:58;3.40;;;2.53;;
9526;SDS011;4802;51.494;6.770;2022-08-05T06:51:33;2.57;;;2.40;;
9526;SDS011;4802;51.494;6.770;2022-08-05T06:54:06;2.20;;;1.77;;
9526;SDS011;4802;51.494;6.770;2022-08-05T06:56:43;5.30;;;1.90;;
9526;SDS011;4802;51.494;6.770;2022-08-05T06:59:34;1.63;;;1.53;;
9526;SDS011;4802;51.494;6.770;2022-08-05T07:02:04;1.37;;;1.27;;
9526;SDS011;4802;51.494;6.770;2022-08-05T07:04:34;2.50;;;1.60;;
9526;SDS011;4802;51.494;6.770;2022-08-05T07:07:04;2.60;;;2.00;;
9526;SDS011;4802;51.494;6.770;2022-08-05T07:09:33;3.67;;;2.20;;
9526;SDS011;4802;51.494;6.770;2022-08-05T07:12:09;7.03;;;2.70;;
9526;SDS011;4802;51.494;6.770;2022-08-05T07:15:04;1.40;;;1.30;;
9526;SDS011;4802;51.494;6.770;2022-08-05T07:18:13;2.63;;;2.30;;
9526;SDS011;4802;51.494;6.770;2022-08-05T07:20:55;1.67;;;1.57;;
9526;SDS011;4802;51.494;6.770;2022-08-05T07:23:31;1.57;;;1.47;;
9526;SDS011;4802;51.494;6.770;2022-08-05T07:26:14;3.27;;;1.27;;
9526;SDS011;4802;51.494;6.770;2022-08-05T07:28:49;2.87;;;1.63;;
9526;SDS011;4802;51.494;6.770;2022-08-05T07:31:20;1.20;;;1.20;;
9526;SDS011;4802;51.494;6.770;2022-08-05T07:34:12;0.87;;;0.83;;
9526;SDS011;4802;51.494;6.770;2022-08-05T07:36:53;0.97;;;0.90;;
9526;SDS011;4802;51.494;6.770;2022-08-05T07:39:23;1.50;;;1.40;;
9526;SDS011;4802;51.494;6.770;2022-08-05T07:42:14;1.10;;;1.10;;
9526;SDS011;4802;51.494;6.770;2022-08-05T07:44:59;7.40;;;2.20;;
9526;SDS011;4802;51.494;6.770;2022-08-05T07:47:36;1.73;;;1.63;;
9526;SDS011;4802;51.494;6.770;2022-08-05T07:50:08;2.60;;;1.20;;
9526;SDS011;4802;51.494;6.770;2022-08-05T07:52:42;2.50;;;1.50;;
9526;SDS011;4802;51.494;6.770;2022-08-05T07:55:16;1.23;;;1.23;;
9526;SDS011;4802;51.494;6.770;2022-08-05T07:58:08;3.50;;;0.77;;
9526;SDS011;4802;51.494;6.770;2022-08-05T08:00:57;5.80;;;3.23;;
9526;SDS011;4802;51.494;6.770;2022-08-05T08:03:39;2.40;;;1.57;;
9526;SDS011;4802;51.494;6.770;2022-08-05T08:06:11;2.70;;;1.10;;
9526;SDS011;4802;51.494;6.770;2022-08-05T08:08:42;1.27;;;1.03;;
9526;SDS011;4802;51.494;6.770;2022-08-05T08:11:14;1.10;;;1.10;;
9526;SDS011;4802;51.494;6.770;2022-08-05T08:13:53;3.30;;;1.47;;
9526;SDS011;4802;51.494;6.770;2022-08-05T08:16:29;1.60;;;1.50;;
9526;SDS011;4802;51.494;6.770;2022-08-05T08:19:18;3.53;;;1.53;;
9526;SDS011;4802;51.494;6.770;2022-08-05T08:22:09;1.50;;;1.30;;
9526;SDS011;4802;51.494;6.770;2022-08-05T08:24:41;1.33;;;1.10;;
9526;SDS011;4802;51.494;6.770;2022-08-05T08:27:17;1.50;;;1.40;;
9526;SDS011;4802;51.494;6.770;2022-08-05T08:30:09;1.07;;;1.07;;
9526;SDS011;4802;51.494;6.770;2022-08-05T08:33:05;1.33;;;1.33;;
9526;SDS011;4802;51.494;6.770;2022-08-05T08:35:43;0.80;;;0.80;;
9526;SDS011;4802;51.494;6.770;2022-08-05T08:38:33;1.60;;;1.50;;
9526;SDS011;4802;51.494;6.770;2022-08-05T08:41:04;1.33;;;1.23;;
9526;SDS011;4802;51.494;6.770;2022-08-05T08:43:39;1.20;;;1.10;;
9526;SDS011;4802;51.494;6.770;2022-08-05T08:46:33;1.23;;;1.13;;
9526;SDS011;4802;51.494;6.770;2022-08-05T08:49:05;0.80;;;0.80;;
9526;SDS011;4802;51.494;6.770;2022-08-05T08:51:58;1.87;;;0.97;;
9526;SDS011;4802;51.494;6.770;2022-08-05T08:54:49;1.30;;;1.20;;
9526;SDS011;4802;51.494;6.770;2022-08-05T08:57:25;5.80;;;1.90;;
9526;SDS011;4802;51.494;6.770;2022-08-05T09:00:17;1.17;;;1.17;;
9526;SDS011;4802;51.494;6.770;2022-08-05T09:02:48;2.60;;;1.37;;
9526;SDS011;4802;51.494;6.770;2022-08-05T09:05:20;1.20;;;1.17;;
9526;SDS011;4802;51.494;6.770;2022-08-05T09:08:14;1.60;;;1.47;;
9526;SDS011;4802;51.494;6.770;2022-08-05T09:10:52;1.40;;;1.23;;
9526;SDS011;4802;51.494;6.770;2022-08-05T09:13:27;3.03;;;0.77;;
9526;SDS011;4802;51.494;6.770;2022-08-05T09:16:19;0.93;;;0.93;;
9526;SDS011;4802;51.494;6.770;2022-08-05T09:18:52;2.17;;;1.13;;
9526;SDS011;4802;51.494;6.770;2022-08-05T09:21:25;0.70;;;0.70;;
9526;SDS011;4802;51.494;6.770;2022-08-05T09:24:17;1.27;;;1.23;;
9526;SDS011;4802;51.494;6.770;2022-08-05T09:26:57;2.47;;;1.23;;
9526;SDS011;4802;51.494;6.770;2022-08-05T09:29:38;1.03;;;1.03;;
9526;SDS011;4802;51.494;6.770;2022-08-05T09:32:13;0.77;;;0.77;;
9526;SDS011;4802;51.494;6.770;2022-08-05T09:35:14;1.43;;;1.33;;
9526;SDS011;4802;51.494;6.770;2022-08-05T09:37:53;1.60;;;1.50;;
9526;SDS011;4802;51.494;6.770;2022-08-05T09:40:45;1.30;;;1.30;;
9526;SDS011;4802;51.494;6.770;2022-08-05T09:43:26;0.80;;;0.80;;
9526;SDS011;4802;51.494;6.770;2022-08-05T09:46:21;1.40;;;1.10;;
9526;SDS011;4802;51.494;6.770;2022-08-05T09:48:53;1.43;;;1.30;;
9526;SDS011;4802;51.494;6.770;2022-08-05T09:51:34;2.17;;;1.67;;
9526;SDS011;4802;51.494;6.770;2022-08-05T09:54:08;0.60;;;0.60;;
9526;SDS011;4802;51.494;6.770;2022-08-05T09:56:48;1.43;;;0.90;;
9526;SDS011;4802;51.494;6.770;2022-08-05T09:59:22;2.23;;;1.40;;
9526;SDS011;4802;51.494;6.770;2022-08-05T10:02:02;0.90;;;0.90;;
9526;SDS011;4802;51.494;6.770;2022-08-05T10:04:35;1.00;;;0.50;;
9526;SDS011;4802;51.494;6.770;2022-08-05T10:07:06;0.60;;;0.57;;
9526;SDS011;4802;51.494;6.770;2022-08-05T10:09:56;1.30;;;1.20;;
9526;SDS011;4802;51.494;6.770;2022-08-05T10:12:44;1.37;;;1.20;;
9526;SDS011;4802;51.494;6.770;2022-08-05T10:15:25;1.83;;;1.30;;
9526;SDS011;4802;51.494;6.770;2022-08-05T10:18:04;0.50;;;0.50;;
9526;SDS011;4802;51.494;6.770;2022-08-05T10:20:43;1.90;;;1.23;;
9526;SDS011;4802;51.494;6.770;2022-08-05T10:23:16;1.37;;;0.80;;
9526;SDS011;4802;51.494;6.770;2022-08-05T10:26:08;1.00;;;0.70;;
9526;SDS011;4802;51.494;6.770;2022-08-05T10:28:43;0.70;;;0.70;;
9526;SDS011;4802;51.494;6.770;2022-08-05T10:31:14;0.80;;;0.80;;
9526;SDS011;4802;51.494;6.770;2022-08-05T10:34:04;3.40;;;0.80;;
9526;SDS011;4802;51.494;6.770;2022-08-05T10:36:35;1.47;;;1.00;;
9526;SDS011;4802;51.494;6.770;2022-08-05T10:39:11;1.50;;;1.20;;
9526;SDS011;4802;51.494;6.770;2022-08-05T10:41:53;3.33;;;1.10;;
9526;SDS011;4802;51.494;6.770;2022-08-05T10:44:33;1.17;;;1.07;;
9526;SDS011;4802;51.494;6.770;2022-08-05T10:47:12;1.57;;;0.90;;
9526;SDS011;4802;51.494;6.770;2022-08-05T10:49:59;0.80;;;0.80;;
9526;SDS011;4802;51.494;6.770;2022-08-05T10:52:51;0.70;;;0.70;;
9526;SDS011;4802;51.494;6.770;2022-08-05T10:55:25;1.17;;;1.07;;
9526;SDS011;4802;51.494;6.770;2022-08-05T10:58:16;0.60;;;0.60;;
9526;SDS011;4802;51.494;6.770;2022-08-05T11:00:48;2.20;;;1.20;;
9526;SDS011;4802;51.494;6.770;2022-08-05T11:03:29;1.20;;;1.10;;
9526;SDS011;4802;51.494;6.770;2022-08-05T11:06:04;1.20;;;1.10;;
9526;SDS011;4802;51.494;6.770;2022-08-05T11:11:47;2.77;;;1.17;;
9526;SDS011;4802;51.494;6.770;2022-08-05T11:14:27;1.00;;;1.00;;
9526;SDS011;4802;51.494;6.770;2022-08-05T11:17:30;1.57;;;1.47;;
9526;SDS011;4802;51.494;6.770;2022-08-05T11:20:32;3.80;;;1.43;;
9526;SDS011;4802;51.494;6.770;2022-08-05T11:23:25;1.23;;;1.13;;
9526;SDS011;4802;51.494;6.770;2022-08-05T11:26:43;1.70;;;1.60;;
9526;SDS011;4802;51.494;6.770;2022-08-05T11:29:36;0.80;;;0.80;;
9526;SDS011;4802;51.494;6.770;2022-08-05T11:32:25;1.00;;;0.93;;
9526;SDS011;4802;51.494;6.770;2022-08-05T11:35:10;1.60;;;0.93;;
9526;SDS011;4802;51.494;6.770;2022-08-05T11:38:49;1.73;;;1.50;;
9526;SDS011;4802;51.494;6.770;2022-08-05T11:41:26;0.70;;;0.70;;
9526;SDS011;4802;51.494;6.770;2022-08-05T11:44:19;0.70;;;0.70;;
9526;SDS011;4802;51.494;6.770;2022-08-05T11:47:06;1.33;;;1.00;;
9526;SDS011;4802;51.494;6.770;2022-08-05T11:49:49;1.10;;;1.00;;
9526;SDS011;4802;51.494;6.770;2022-08-05T11:52:28;1.27;;;0.70;;
9526;SDS011;4802;51.494;6.770;2022-08-05T11:55:09;0.93;;;0.93;;
9526;SDS011;4802;51.494;6.770;2022-08-05T11:57:44;4.30;;;1.30;;
9526;SDS011;4802;51.494;6.770;2022-08-05T12:00:37;0.80;;;0.80;;
9526;SDS011;4802;51.494;6.770;2022-08-05T12:03:15;2.20;;;1.33;;
9526;SDS011;4802;51.494;6.770;2022-08-05T12:05:57;1.70;;;1.60;;
9526;SDS011;4802;51.494;6.770;2022-08-05T12:08:42;1.93;;;0.80;;
9526;SDS011;4802;51.494;6.770;2022-08-05T12:11:17;1.17;;;1.17;;
9526;SDS011;4802;51.494;6.770;2022-08-05T12:13:53;1.47;;;1.37;;
9526;SDS011;4802;51.494;6.770;2022-08-05T12:16:31;1.13;;;1.00;;
9526;SDS011;4802;51.494;6.770;2022-08-05T12:19:05;1.23;;;1.13;;
9526;SDS011;4802;51.494;6.770;2022-08-05T12:21:57;1.00;;;0.60;;
9526;SDS011;4802;51.494;6.770;2022-08-05T12:24:38;1.27;;;1.27;;
9526;SDS011;4802;51.494;6.770;2022-08-05T12:27:19;0.87;;;0.87;;
9526;SDS011;4802;51.494;6.770;2022-08-05T12:29:59;0.80;;;0.80;;
9526;SDS011;4802;51.494;6.770;2022-08-05T12:32:33;4.20;;;0.90;;
9526;SDS011;4802;51.494;6.770;2022-08-05T12:35:05;1.20;;;1.10;;
9526;SDS011;4802;51.494;6.770;2022-08-05T12:37:42;2.00;;;1.30;;
9526;SDS011;4802;51.494;6.770;2022-08-05T12:40:32;0.70;;;0.70;;
9526;SDS011;4802;51.494;6.770;2022-08-05T12:43:10;1.60;;;1.50;;
9526;SDS011;4802;51.494;6.770;2022-08-05T12:45:49;0.87;;;0.87;;
9526;SDS011;4802;51.494;6.770;2022-08-05T12:48:46;2.10;;;1.10;;
9526;SDS011;4802;51.494;6.770;2022-08-05T12:51:26;1.40;;;1.40;;
9526;SDS011;4802;51.494;6.770;2022-08-05T12:54:30;0.93;;;0.93;;
9526;SDS011;4802;51.494;6.770;2022-08-05T12:57:11;3.40;;;1.07;;
9526;SDS011;4802;51.494;6.770;2022-08-05T12:59:44;1.20;;;1.20;;
9526;SDS011;4802;51.494;6.770;2022-08-05T13:02:53;0.87;;;0.80;;
9526;SDS011;4802;51.494;6.770;2022-08-05T13:05:25;1.23;;;0.90;;
9526;SDS011;4802;51.494;6.770;2022-08-05T13:08:03;1.40;;;0.97;;
9526;SDS011;4802;51.494;6.770;2022-08-05T13:10:41;7.10;;;0.80;;
9526;SDS011;4802;51.494;6.770;2022-08-05T13:13:19;1.00;;;1.00;;
9526;SDS011;4802;51.494;6.770;2022-08-05T13:16:12;0.80;;;0.80;;
9526;SDS011;4802;51.494;6.770;2022-08-05T13:18:51;0.43;;;0.43;;
9526;SDS011;4802;51.494;6.770;2022-08-05T13:21:24;0.60;;;0.60;;
9526;SDS011;4802;51.494;6.770;2022-08-05T13:24:14;0.43;;;0.40;;
9526;SDS011;4802;51.494;6.770;2022-08-05T13:27:06;2.40;;;0.90;;
9526;SDS011;4802;51.494;6.770;2022-08-05T13:29:49;2.83;;;1.30;;
9526;SDS011;4802;51.494;6.770;2022-08-05T13:32:39;0.93;;;0.73;;
9526;SDS011;4802;51.494;6.770;2022-08-05T13:35:16;1.77;;;0.53;;
9526;SDS011;4802;51.494;6.770;2022-08-05T13:38:13;2.60;;;0.80;;
9526;SDS011;4802;51.494;6.770;2022-08-05T13:40:59;0.60;;;0.60;;
9526;SDS011;4802;51.494;6.770;2022-08-05T13:43:29;1.60;;;1.17;;
9526;SDS011;4802;51.494;6.770;2022-08-05T13:46:21;0.50;;;0.50;;
9526;SDS011;4802;51.494;6.770;2022-08-05T13:49:11;1.50;;;0.70;;
9526;SDS011;4802;51.494;6.770;2022-08-05T13:51:41;1.00;;;0.63;;
9526;SDS011;4802;51.494;6.770;2022-08-05T13:54:14;0.50;;;0.50;;
9526;SDS011;4802;51.494;6.770;2022-08-05T13:56:50;1.00;;;0.90;;
9526;SDS011;4802;51.494;6.770;2022-08-05T13:59:20;2.70;;;0.73;;
9526;SDS011;4802;51.494;6.770;2022-08-05T14:01:57;0.60;;;0.40;;
9526;SDS011;4802;51.494;6.770;2022-08-05T14:04:29;0.70;;;0.67;;
9526;SDS011;4802;51.494;6.770;2022-08-05T14:07:18;0.60;;;0.60;;
9526;SDS011;4802;51.494;6.770;2022-08-05T14:10:10;0.60;;;0.60;;
9526;SDS011;4802;51.494;6.770;2022-08-05T14:12:53;0.80;;;0.60;;
9526;SDS011;4802;51.494;6.770;2022-08-05T14:15:23;1.27;;;0.50;;
9526;SDS011;4802;51.494;6.770;2022-08-05T14:18:14;0.83;;;0.50;;
9526;SDS011;4802;51.494;6.770;2022-08-05T14:20:49;0.50;;;0.50;;
9526;SDS011;4802;51.494;6.770;2022-08-05T14:23:20;0.50;;;0.40;;
9526;SDS011;4802;51.494;6.770;2022-08-05T14:26:02;0.50;;;0.50;;
9526;SDS011;4802;51.494;6.770;2022-08-05T14:28:54;0.50;;;0.40;;
9526;SDS011;4802;51.494;6.770;2022-08-05T14:31:25;0.63;;;0.63;;
9526;SDS011;4802;51.494;6.770;2022-08-05T14:34:16;0.60;;;0.60;;
9526;SDS011;4802;51.494;6.770;2022-08-05T14:36:49;1.57;;;0.53;;
9526;SDS011;4802;51.494;6.770;2022-08-05T14:39:18;0.40;;;0.40;;
9526;SDS011;4802;51.494;6.770;2022-08-05T14:41:53;0.40;;;0.33;;
9526;SDS011;4802;51.494;6.770;2022-08-05T14:44:44;0.80;;;0.80;;
9526;SDS011;4802;51.494;6.770;2022-08-05T14:47:17;0.50;;;0.40;;
9526;SDS011;4802;51.494;6.770;2022-08-05T14:50:14;0.80;;;0.40;;
9526;SDS011;4802;51.494;6.770;2022-08-05T14:53:06;0.57;;;0.40;;
9526;SDS011;4802;51.494;6.770;2022-08-05T14:55:39;0.60;;;0.60;;
9526;SDS011;4802;51.494;6.770;2022-08-05T14:58:09;0.53;;;0.40;;
9526;SDS011;4802;51.494;6.770;2022-08-05T15:00:44;1.13;;;0.47;;
9526;SDS011;4802;51.494;6.770;2022-08-05T15:03:25;0.50;;;0.40;;
9526;SDS011;4802;51.494;6.770;2022-08-05T15:06:06;3.63;;;0.40;;
9526;SDS011;4802;51.494;6.770;2022-08-05T15:08:41;0.50;;;0.30;;
9526;SDS011;4802;51.494;6.770;2022-08-05T15:11:29;0.60;;;0.50;;
9526;SDS011;4802;51.494;6.770;2022-08-05T15:14:19;0.47;;;0.37;;
9526;SDS011;4802;51.494;6.770;2022-08-05T15:17:09;0.60;;;0.30;;
9526;SDS011;4802;51.494;6.770;2022-08-05T15:19:59;0.40;;;0.30;;
9526;SDS011;4802;51.494;6.770;2022-08-05T15:22:49;0.53;;;0.53;;
9526;SDS011;4802;51.494;6.770;2022-08-05T15:25:25;1.33;;;0.50;;
9526;SDS011;4802;51.494;6.770;2022-08-05T15:28:18;0.50;;;0.40;;
9526;SDS011;4802;51.494;6.770;2022-08-05T15:30:53;0.47;;;0.47;;
9526;SDS011;4802;51.494;6.770;2022-08-05T15:33:29;0.53;;;0.53;;
9526;SDS011;4802;51.494;6.770;2022-08-05T15:36:21;0.40;;;0.40;;
9526;SDS011;4802;51.494;6.770;2022-08-05T15:38:53;0.67;;;0.40;;
9526;SDS011;4802;51.494;6.770;2022-08-05T15:41:43;0.80;;;0.47;;
9526;SDS011;4802;51.494;6.770;2022-08-05T15:44:24;0.60;;;0.50;;
9526;SDS011;4802;51.494;6.770;2022-08-05T15:46:56;0.40;;;0.40;;
9526;SDS011;4802;51.494;6.770;2022-08-05T15:49:38;3.17;;;0.70;;
9526;SDS011;4802;51.494;6.770;2022-08-05T15:52:24;0.40;;;0.30;;
9526;SDS011;4802;51.494;6.770;2022-08-05T15:55:27;0.50;;;0.50;;
9526;SDS011;4802;51.494;6.770;2022-08-05T15:58:30;0.40;;;0.30;;
9526;SDS011;4802;51.494;6.770;2022-08-05T16:01:12;0.70;;;0.50;;
9526;SDS011;4802;51.494;6.770;2022-08-05T16:03:59;0.87;;;0.43;;
9526;SDS011;4802;51.494;6.770;2022-08-05T16:06:35;0.53;;;0.53;;
9526;SDS011;4802;51.494;6.770;2022-08-05T16:09:11;0.50;;;0.40;;
9526;SDS011;4802;51.494;6.770;2022-08-05T16:11:54;0.93;;;0.80;;
9526;SDS011;4802;51.494;6.770;2022-08-05T16:14:31;0.40;;;0.30;;
9526;SDS011;4802;51.494;6.770;2022-08-05T16:17:05;0.50;;;0.50;;
9526;SDS011;4802;51.494;6.770;2022-08-05T16:19:53;0.60;;;0.47;;
9526;SDS011;4802;51.494;6.770;2022-08-05T16:22:50;0.50;;;0.40;;
9526;SDS011;4802;51.494;6.770;2022-08-05T16:25:36;0.50;;;0.37;;
9526;SDS011;4802;51.494;6.770;2022-08-05T16:34:36;1.90;;;0.70;;
9526;SDS011;4802;51.494;6.770;2022-08-05T16:37:16;0.40;;;0.30;;
9526;SDS011;4802;51.494;6.770;2022-08-05T16:40:13;0.50;;;0.50;;
9526;SDS011;4802;51.494;6.770;2022-08-05T16:43:01;0.40;;;0.40;;
9526;SDS011;4802;51.494;6.770;2022-08-05T16:45:58;0.47;;;0.40;;
9526;SDS011;4802;51.494;6.770;2022-08-05T16:48:43;0.67;;;0.60;;